Keene Valley, New York
Current Conditions -  °F | °C
As of 7:57 AM on Saturday 25 Oct 2014 (Local Time) from KSLK Reporting Station
Haze Haze  
Wind Chill: 33°   Ceiling: 300
Heat Index: 39°   Visibility: 3mi
Dew Point: 38°   Wind: 8mph
Humidity: 96%   Direction: 220°SW
Pressure: 29.76"   Gusts: NA
Location:  44.19°N, 73.79°W
Report Text: KSLK 251157Z AUTO 22007KT 3SM BR OVC003 04/03 A2976 RMK AO2 T00390033
Loading
Personal Weather Stations






























Interactive Weather Map
Tropical Storm Tracking
New forecast layout! Learn more

10-Day Weather Forecast

Advertisements
Track Severe Weather on mobile